Home > Products > Valid Products > MTR

000
SAUS41 KOKX 292255
MTRMTP
METAR KMTP 292254Z AUTO 22006KT 22/14 A2994 RMK AO1 SLP138 T02220144





000
SAUS41 KOKX 292252
MTRNYC
METAR KNYC 292251Z AUTO 00000KT 10SM OVC080 23/09 A2996 RMK AO2
SLP135 T02330089 $





000
SAUS41 KOKX 292155
MTRMTP
METAR KMTP 292154Z AUTO 25007KT 24/13 A2991 RMK AO1 SLP128 T02440128





000
SAUS41 KOKX 292152
MTRNYC
METAR KNYC 292151Z AUTO VRB04KT 10SM FEW060 SCT080 23/09 A2994 RMK
AO2 SLP128 T02330094 $





000
SAUS41 KOKX 292055
MTRMTP
METAR KMTP 292054Z AUTO 23007KT 24/13 A2990 RMK AO1 SLP125 T02440128
52013





000
SAUS41 KOKX 292053
MTRNYC
METAR KNYC 292051Z AUTO 10SM FEW060 BKN075 23/09 A2993 RMK AO2
SLP125 T02330094 53010 $





000
SAUS41 KOKX 291955
MTRMTP
METAR KMTP 291954Z AUTO 26006KT 24/12 A2989 RMK AO1 SLP120 T02440117





000
SAUS41 KOKX 291952
MTRNYC
METAR KNYC 291951Z AUTO VRB04KT 10SM SCT070 24/10 A2991 RMK AO2
SLP120 T02440100 $





000
SAUS41 KOKX 291855
MTRMTP
METAR KMTP 291854Z AUTO 27006KT 24/14 A2988 RMK AO1 SLP117 T02440139





000
SAUS41 KOKX 291853
MTRNYC
METAR KNYC 291851Z AUTO 28007KT 240V020 10SM FEW055 24/11 A2990 RMK
AO2 SLP117 T02440106 $





000
SAUS41 KOKX 291755
MTRMTP
METAR KMTP 291754Z AUTO 26008KT 23/14 A2986 RMK AO1 SLP112 T02330139
10239 20200 53006





000
SAUS41 KOKX 291753
MTRNYC
METAR KNYC 291751Z AUTO 29009G15KT 10SM SCT065 22/11 A2990 RMK AO2
SLP115 T02220111 10239 20178 53001 $





000
SAUS41 KOKX 291655
MTRMTP
METAR KMTP 291654Z AUTO 26007KT 23/14 A2985 RMK AO1 SLP108 T02330144





000
SAUS41 KOKX 291653
MTRNYC
METAR KNYC 291651Z AUTO 00000KT 10SM SCT049 BKN060 22/10 A2989 RMK
AO2 SLP113 T02220100 $





000
SAUS41 KOKX 291555
MTRMTP
METAR KMTP 291554Z AUTO 28008KT 22/14 A2985 RMK AO1 SLP106 T02220139





000
SAUS41 KOKX 291552
MTRNYC
METAR KNYC 291551Z AUTO VRB06KT 10SM CLR 22/10 A2989 RMK AO2 SLP112
T02220100 $





000
SAUS41 KOKX 291455
MTRMTP
METAR KMTP 291454Z AUTO 28008KT 22/14 A2984 RMK AO1 SLP106 T02170139
52011





000
SAUS41 KOKX 291453
MTRNYC
METAR KNYC 291451Z AUTO VRB05KT 10SM CLR 22/12 A2989 RMK AO2 SLP114
T02170117 51008 $





000
SAUS41 KOKX 291355
MTRMTP
METAR KMTP 291354Z AUTO 28007KT 21/14 A2983 RMK AO1 SLP102 T02060144





000
SAUS41 KOKX 291353
MTRNYC
METAR KNYC 291351Z AUTO VRB03KT 10SM CLR 20/11 A2989 RMK AO2 SLP111
T02000106 $





000
SAUS41 KOKX 291255
MTRMTP
METAR KMTP 291254Z AUTO 28007KT 21/14 A2982 RMK AO1 SLP098 T02060144





000
SAUS41 KOKX 291252
MTRNYC
METAR KNYC 291251Z AUTO 29006KT 10SM SCT085 19/12 A2988 RMK AO2
SLP110 T01890117 $





000
SAUS41 KOKX 291155
MTRMTP
METAR KMTP 291154Z AUTO 29006KT 20/14 A2981 RMK AO1 SLP095 T02000144
10206 20189 53020





000
SAUS41 KOKX 291153
MTRNYC
METAR KNYC 291151Z AUTO VRB03KT 10SM CLR 18/12 A2987 RMK AO2 SLP105
T01780117 10194 20178 51021 $





000
SAUS41 KOKX 291055
MTRMTP
METAR KMTP 291054Z AUTO 29006KT 19/14 A2979 RMK AO1 SLP087 T01940139





000
SAUS41 KOKX 291052
MTRNYC
METAR KNYC 291051Z AUTO VRB04KT 10SM CLR 18/11 A2985 RMK AO2 SLP100
T01780111 $





000
SAUS41 KOKX 290955
MTRMTP
METAR KMTP 290954Z AUTO 30009KT 19/14 A2977 RMK AO1 SLP079 T01890139





000
SAUS41 KOKX 290952
MTRNYC
METAR KNYC 290951Z AUTO 29003KT 10SM CLR 18/12 A2982 RMK AO2 SLP090
T01780117 $





000
SAUS41 KOKX 290855
MTRMTP
METAR KMTP 290854Z AUTO 29007KT 19/14 A2975 RMK AO1 SLP075 T01940144
51026





000
SAUS41 KOKX 290852
MTRNYC
METAR KNYC 290851Z AUTO 30008KT 270V040 10SM CLR 18/11 A2981 RMK AO2
SLP084 T01830111 53015 $





000
SAUS41 KOKX 290755
MTRMTP
METAR KMTP 290754Z AUTO 30007KT 20/15 A2972 RMK AO1 SLP065 T02000150





000
SAUS41 KOKX 290752
MTRNYC
METAR KNYC 290751Z AUTO 31007KT 10SM CLR 18/12 A2979 RMK AO2 SLP079
T01830117 $





000
SAUS41 KOKX 290655
MTRMTP
METAR KMTP 290654Z AUTO 29008G16KT 20/15 A2971 RMK AO1 SLP059
T02000150





000
SAUS41 KOKX 290652
MTRNYC
METAR KNYC 290651Z AUTO 30007G15KT 10SM CLR 19/12 A2978 RMK AO2
SLP074 T01890117 $





000
SAUS41 KOKX 290555
MTRMTP
METAR KMTP 290554Z AUTO 29009KT 21/17 A2968 RMK AO1 SLP049 T02060167
10244 20206 53017





000
SAUS41 KOKX 290553
MTRNYC
METAR KNYC 290551Z AUTO VRB05KT 10SM CLR 19/13 A2976 RMK AO2 SLP069
T01940128 10233 20194 53014 $





000
SAUS41 KOKX 290455
MTRMTP
METAR KMTP 290454Z AUTO 26008G19KT 22/18 A2964 RMK AO1 SLP038
T02170178 402670217





000
SAUS41 KOKX 290452
MTRNYC
METAR KNYC 290451Z AUTO VRB05KT 10SM FEW031 20/13 A2974 RMK AO2
SLP061 T02000128 402780200 $





000
SAUS41 KOKX 290355
MTRMTP
METAR KMTP 290354Z AUTO 27009KT 22/18 A2962 RMK AO1 SLP031 T02220178





000
SAUS41 KOKX 290352
MTRNYC
METAR KNYC 290351Z AUTO VRB05KT 10SM FEW029 21/13 A2972 RMK AO2
SLP055 T02060133 $





000
SAUS41 KOKX 290255
MTRMTP
METAR KMTP 290254Z AUTO 26010G19KT 23/17 A2963 RMK AO1 SLP031
T02280172 51019





000
SAUS41 KOKX 290252
MTRNYC
METAR KNYC 290251Z AUTO 28008KT 10SM CLR 21/14 A2972 RMK AO2 SLP055
T02110139 51030 $





000
SAUS41 KOKX 290155
MTRMTP
METAR KMTP 290154Z AUTO 25007KT 24/17 A2961 RMK AO1 SLP027 T02390172





000
SAUS41 KOKX 290152
MTRNYC
METAR KNYC 290151Z AUTO 28006KT 10SM SCT028 22/14 A2970 RMK AO2
SLP047 T02170144 $





000
SAUS41 KOKX 290055
MTRMTP
METAR KMTP 290054Z AUTO 23011G19KT 24/18 A2959 RMK AO1 SLP018
T02390178





000
SAUS41 KOKX 290052
MTRNYC
METAR KNYC 290051Z AUTO 28012G20KT 230V310 10SM CLR 22/14 A2966 RMK
AO2 SLP034 T02220144 $





000
SAUS41 KOKX 282355
MTRMTP
METAR KMTP 282354Z AUTO 23011G18KT 24/18 A2957 RMK AO1 SLP012
T02440183 10267 20244 53011





000
SAUS41 KOKX 282353
MTRNYC
METAR KNYC 282351Z AUTO 28008G14KT 240V300 10SM FEW080 23/14 A2963
RMK AO2 SLP024 T02330139 10278 20233 53021 $





000
SAUS41 KOKX 282255
MTRMTP
METAR KMTP 282254Z AUTO 22009G16KT 25/20 A2956 RMK AO1 SLP009
T02500200





000
SAUS41 KOKX 282252
MTRNYC
METAR KNYC 282251Z AUTO 29010G25KT 250V320 10SM BKN060 27/14 A2960
RMK AO2 SLP014 T02670139 $





000
SAUS41 KOKX 282155
MTRMTP
METAR KMTP 282154Z AUTO 21011G20KT 25/20 A2954 RMK AO1 SLP004
T02500200





000
SAUS41 KOKX 282152
MTRNYC
METAR KNYC 282151Z AUTO 25008G16KT 210V280 10SM FEW050 27/14 A2958
RMK AO2 SLP005 T02670144 $





000
SAUS41 KOKX 282055
MTRMTP
METAR KMTP 282054Z AUTO 21009G16KT 26/20 A2954 RMK AO1 SLP001
T02560200 53000





000
SAUS41 KOKX 282052
MTRNYC
METAR KNYC 282051Z AUTO 27009G18KT 230V310 10SM FEW110 27/15 A2957
RMK AO2 SLP002 T02670150 53007 $





000
SAUS41 KOKX 281955
MTRMTP
METAR KMTP 281954Z AUTO 20009G20KT 26/20 A2953 RMK AO1 SLP000
T02560200





000
SAUS41 KOKX 281953
MTRNYC
METAR KNYC 281951Z AUTO 10SM FEW049 SCT075 BKN100 26/17 A2956 RMK
AO2 SLP000 T02610167 $





000
SAUS41 KOKX 281858 COR
MTRMTP
METAR KMTP 281854Z AUTO 23009G15KT 27/21 A2953 RMK AO1 SLP999
T02670211





000
SAUS41 KOKX 281857 COR
MTRMTP
METAR KMTP 281854Z AUTO 23009G15KT 27/21 A2953 RMK AO1 SLP999
T02670211





000
SAUS41 KOKX 281852
MTRNYC
METAR KNYC 281851Z AUTO VRB04KT 10SM BKN047 BKN055 BKN070 26/16
A2955 RMK AO2 SLP997 T02610161 $





000
SAUS41 KOKX 281755
MTRMTP
METAR KMTP 281754Z AUTO 22010G18KT 26/22 A2954 RMK AO1 SLP001
T02610222 10261 20217 58016





000
SAUS41 KOKX 281752
MTRNYC
METAR KNYC 281751Z AUTO VRB05G17KT 10SM FEW048 26/17 A2955 RMK AO2
SLP995 T02610167 10272 20217 58012 $





000
SAUS41 KOKX 281655
MTRMTP
METAR KMTP 281654Z AUTO 20006KT 26/22 A2955 RMK AO1 SLP005 T02560222





000
SAUS41 KOKX 281652
MTRNYC
METAR KNYC 281651Z AUTO 25008KT 10SM BKN039 BKN049 26/17 A2956 RMK
AO2 SLP000 T02560172 $





000
SAUS41 KOKX 281555
MTRMTP
METAR KMTP 281554Z AUTO VRB05KT 24/21 A2957 RMK AO1 SLP014 T02390211





000
SAUS41 KOKX 281553
MTRNYC
METAR KNYC 281551Z AUTO 27007KT 230V300 10SM BKN030 24/18 A2958 RMK
AO2 SLP006 T02440183 $





000
SAUS41 KOKX 281534
MTRNYC
SPECI KNYC 281533Z AUTO 27003G15KT 10SM FEW020 OVC031 24/19 A2958
RMK AO2 T02440189 $





000
SAUS41 KOKX 281455
MTRMTP
METAR KMTP 281454Z AUTO VRB04KT 25/21 A2958 RMK AO1 SLP017 T02500211
51001





000
SAUS41 KOKX 281452
MTRNYC
METAR KNYC 281451Z AUTO 25006KT 10SM BKN019 OVC026 23/19 A2958 RMK
AO2 SLP007 T02280189 50000 $





000
SAUS41 KOKX 281355
MTRMTP
METAR KMTP 281354Z AUTO 19007KT 150V220 24/21 A2958 RMK AO1 SLP016
T02390206





000
SAUS41 KOKX 281352
MTRNYC
METAR KNYC 281351Z AUTO 10SM OVC018 23/19 A2958 RMK AO2 SLP007
T02280194 $





000
SAUS41 KOKX 281333
MTRNYC
SPECI KNYC 281332Z AUTO 25003KT 10SM BKN016 23/19 A2958 RMK AO2
T02280194 $





000
SAUS41 KOKX 281255
MTRMTP
METAR KMTP 281254Z AUTO 18006KT 23/20 A2958 RMK AO1 SLP018 T02330200





000
SAUS41 KOKX 281252
MTRNYC
METAR KNYC 281251Z AUTO 10SM FEW022 OVC042 22/19 A2958 RMK AO2
SLP008 T02220194 $





000
SAUS41 KOKX 281242
MTRNYC
SPECI KNYC 281241Z AUTO 23005KT 10SM FEW022 BKN039 OVC046 22/19
A2959 RMK AO2 T02220194 $





000
SAUS41 KOKX 281155
MTRMTP
METAR KMTP 281154Z AUTO 19008G15KT 22/19 A2958 RMK AO1 SLP016 P0002
60003 70003 T02170194 10228 20217 58014





000
SAUS41 KOKX 281152
MTRNYC
METAR KNYC 281151Z AUTO VRB03KT 10SM SCT017 OVC024 22/19 A2958 RMK
AO2 SLP007 60008 70020 T02170194 10233 20206 50005 $





000
SAUS41 KOKX 281118
MTRNYC
SPECI KNYC 281116Z AUTO VRB06KT 10SM FEW015 BKN028 OVC042 21/19
A2959 RMK AO2 T02110194 $





000
SAUS41 KOKX 281055
MTRMTP
METAR KMTP 281054Z AUTO 16009KT 22/22 A2960 RMK AO1 SLP024 T02220217





000
SAUS41 KOKX 281052
MTRNYC
METAR KNYC 281051Z AUTO VRB05KT 10SM FEW015 BKN030 OVC042 21/19
A2959 RMK AO2 SLP009 T02110194 $





000
SAUS41 KOKX 281025
MTRNYC
SPECI KNYC 281024Z AUTO 17005KT 10SM BKN029 21/19 A2958 RMK AO2
T02110194 $





000
SAUS41 KOKX 280955
MTRMTP
METAR KMTP 280954Z AUTO VRB05KT 23/22 A2962 RMK AO1 SLP029 P0001
T02280217





000
SAUS41 KOKX 280953
MTRNYC
METAR KNYC 280951Z AUTO 00000KT 10SM CLR 21/19 A2958 RMK AO2 SLP005
T02060189 $





000
SAUS41 KOKX 280855
MTRMTP
METAR KMTP 280854Z AUTO 16006KT 22/22 A2962 RMK AO1 SLP029 T02220217
56016





000
SAUS41 KOKX 280852
MTRNYC
METAR KNYC 280851Z AUTO 25007KT 10SM SCT120 21/19 A2957 RMK AO2
RAE43 SLP002 P0001 60008 T02060189 56025 $





000
SAUS41 KOKX 280755
MTRMTP
METAR KMTP 280754Z AUTO 15005KT 22/21 A2963 RMK AO1 SLP034 T02220211





000
SAUS41 KOKX 280752
MTRNYC
METAR KNYC 280751Z AUTO VRB05KT 6SM -RA BR FEW014 FEW080 BKN110
21/19 A2960 RMK AO2 RAB13 SLP014 P0002 T02110194 $





000
SAUS41 KOKX 280737
MTRNYC
SPECI KNYC 280736Z AUTO 20008G18KT 170V240 4SM -RA BR BKN011 BKN080
OVC110 22/21 A2962 RMK AO2 RAB13 P0001 T02170206 $





000
SAUS41 KOKX 280722
MTRNYC
SPECI KNYC 280720Z AUTO VRB04KT 3SM -RA BR BKN009 OVC017 23/22 A2961
RMK AO2 RAB13 CIG 008V012 P0000 T02330222 $





000
SAUS41 KOKX 280703
MTRNYC
SPECI KNYC 280702Z AUTO VRB03KT 3SM BR BKN010 BKN017 BKN110 23/22
A2960 RMK AO2 CIG 008V013 T02330222 $





000
SAUS41 KOKX 280655
MTRMTP
METAR KMTP 280654Z AUTO VRB04KT 22/21 A2965 RMK AO1 SLP040 T02220211





000
SAUS41 KOKX 280653
MTRNYC
METAR KNYC 280651Z AUTO VRB03KT 3SM BR SCT010 BKN110 23/22 A2960 RMK
AO2 RAE22 SLP013 P0005 T02330222 $





000
SAUS41 KOKX 280644
MTRNYC
SPECI KNYC 280643Z AUTO 18003KT 3SM BR FEW008 SCT110 23/22 A2959 RMK
AO2 RAE22 P0005 T02330222 $





000
SAUS41 KOKX 280637
MTRNYC
SPECI KNYC 280636Z AUTO 00000KT 2 1/2SM BR FEW011 SCT095 SCT110
23/22 A2959 RMK AO2 RAE22 P0005 T02330222 $





000
SAUS41 KOKX 280620
MTRNYC
SPECI KNYC 280618Z AUTO 16006KT 3SM -RA BR FEW015 SCT050 BKN070
23/22 A2960 RMK AO2 PRESFR P0005 T02330222 $





000
SAUS41 KOKX 280555
MTRMTP
METAR KMTP 280554Z AUTO 19004KT 22/21 A2967 RMK AO1 SLP045 T02220211
10233 20222 58016





000
SAUS41 KOKX 280553
MTRNYC
METAR KNYC 280551Z AUTO VRB03KT 2SM RA BR FEW060 BKN075 OVC090 24/22
A2964 RMK AO2 RAB11 SLP027 P0011 60012 T02390222 10283 20233 58022 $





000
SAUS41 KOKX 280539
MTRNYC
SPECI KNYC 280537Z AUTO VRB04KT 2SM RA BR FEW060 BKN075 OVC120 24/22
A2965 RMK AO2 RAB11 P0006 T02390222 $





000
SAUS41 KOKX 280455
MTRMTP
METAR KMTP 280454Z AUTO 19006KT 22/21 A2969 RMK AO1 SLP052 T02220211
402500211





000
SAUS41 KOKX 280453
MTRNYC
METAR KNYC 280451Z AUTO 23007KT 8SM SCT043 SCT050 BKN075 24/22 A2968
RMK AO2 RAE01B18E50 SLP039 P0001 T02440222 402940217 $





000
SAUS41 KOKX 280355
MTRMTP
METAR KMTP 280354Z AUTO 19007KT 22/21 A2971 RMK AO1 SLP059 T02220211





000
SAUS41 KOKX 280352
MTRNYC
METAR KNYC 280351Z AUTO 26004KT 9SM -RA FEW080 FEW090 SCT110 26/22
A2967 RMK AO2 RAB45 PRESFR SLP037 P0000 T02560217 $





000
SAUS41 KOKX 280255
MTRMTP
METAR KMTP 280254Z AUTO 19006KT 22/21 A2971 RMK AO1 SLP061 T02220206
58002





000
SAUS41 KOKX 280252
MTRNYC
METAR KNYC 280251Z AUTO 00000KT 10SM CLR 27/21 A2971 RMK AO2 SLP049
T02670211 53002 $





000
SAUS41 KOKX 280155
MTRMTP
METAR KMTP 280154Z AUTO 20005KT 23/21 A2972 RMK AO1 SLP063 T02280206





000
SAUS41 KOKX 280153
MTRNYC
METAR KNYC 280151Z AUTO 00000KT 10SM CLR 27/20 A2971 RMK AO2 SLP050
T02720200 $





000
SAUS41 KOKX 280055
MTRMTP
METAR KMTP 280054Z AUTO 21004KT 23/21 A2974 RMK AO1 SLP072 T02280206





000
SAUS41 KOKX 280052
MTRNYC
METAR KNYC 280051Z AUTO 00000KT 10SM CLR 28/17 A2970 RMK AO2 SLP046
T02830167 $





000
SAUS41 KOKX 272355
MTRMTP
METAR KMTP 272354Z AUTO VRB05KT 23/21 A2972 RMK AO1 SLP063 T02330211
10250 20233 56007





000
SAUS41 KOKX 272352
MTRNYC
METAR KNYC 272351Z AUTO 00000KT 10SM CLR 28/17 A2970 RMK AO2 SLP047
T02830167 10294 20272 55007 $





000
SAUS41 KOKX 272255
MTRMTP
METAR KMTP 272254Z AUTO 22006KT 24/21 A2972 RMK AO1 SLP063 T02440211





000
SAUS41 KOKX 272253
MTRNYC
METAR KNYC 272251Z AUTO VRB03KT 10SM FEW055 29/18 A2970 RMK AO2
SLP046 T02940178 $





000
SAUS41 KOKX 272155
MTRMTP
METAR KMTP 272154Z AUTO 21008KT 180V250 24/21 A2972 RMK AO1 SLP064
T02440211





000
SAUS41 KOKX 272152
MTRNYC
METAR KNYC 272151Z AUTO 24007KT 10SM FEW055 29/18 A2971 RMK AO2
SLP050 T02940178 $





000
SAUS41 KOKX 272055
MTRMTP
METAR KMTP 272054Z AUTO 20008G16KT 180V250 24/21 A2974 RMK AO1
SLP070 T02440211 56013





000
SAUS41 KOKX 272053
MTRNYC
METAR KNYC 272051Z AUTO VRB04KT 9SM FEW060 28/19 A2972 RMK AO2
SLP054 T02830194 58011 $





000
SAUS41 KOKX 271955
MTRMTP
METAR KMTP 271954Z AUTO 20009G18KT 24/21 A2975 RMK AO1 SLP073
T02440206





000
SAUS41 KOKX 271952
MTRNYC
METAR KNYC 271951Z AUTO VRB05KT 9SM FEW050 SCT060 28/19 A2974 RMK
AO2 SLP059 T02780194 $





000
SAUS41 KOKX 271855
MTRMTP
METAR KMTP 271854Z AUTO 19009G18KT 24/21 A2976 RMK AO1 SLP076
T02440211





000
SAUS41 KOKX 271852
MTRNYC
METAR KNYC 271851Z AUTO 9SM CLR 29/20 A2974 RMK AO2 SLP062 T02890200
$





000
SAUS41 KOKX 271755
MTRMTP
METAR KMTP 271754Z AUTO 19006KT 24/21 A2978 RMK AO1 SLP083 T02390211
10244 20228 56019





000
SAUS41 KOKX 271752
MTRNYC
METAR KNYC 271751Z AUTO 00000KT 8SM SCT033 BKN040 BKN065 27/21 A2975
RMK AO2 SLP065 T02720211 10278 20228 56016 $





000
SAUS41 KOKX 271655
MTRMTP
METAR KMTP 271654Z AUTO 19006KT 24/21 A2979 RMK AO1 SLP087 T02440206





000
SAUS41 KOKX 271652
MTRNYC
METAR KNYC 271651Z AUTO VRB05KT 9SM BKN044 OVC060 26/20 A2977 RMK
AO2 SLP069 T02610200 $





000
SAUS41 KOKX 271555
MTRMTP
METAR KMTP 271554Z AUTO 18006KT 23/20 A2981 RMK AO1 SLP095 T02280200





000
SAUS41 KOKX 271552
MTRNYC
METAR KNYC 271551Z AUTO VRB03KT 8SM SCT019 BKN046 BKN075 26/20 A2978
RMK AO2 SLP074 T02560200 $





000
SAUS41 KOKX 271455
MTRMTP
METAR KMTP 271454Z AUTO VRB05KT 23/20 A2983 RMK AO1 SLP102 T02280200
56008





000
SAUS41 KOKX 271452
MTRNYC
METAR KNYC 271451Z AUTO VRB03KT 8SM BKN017 OVC026 25/21 A2980 RMK
AO2 SLP080 T02500211 56010 $





000
SAUS41 KOKX 271355
MTRMTP
METAR KMTP 271354Z AUTO 18007KT 160V250 23/20 A2983 RMK AO1 SLP102
T02330200





000
SAUS41 KOKX 271353
MTRNYC
METAR KNYC 271351Z AUTO VRB05KT 9SM BKN029 OVC038 24/20 A2980 RMK
AO2 SLP081 T02440200 $





000
SAUS41 KOKX 271255
MTRMTP
METAR KMTP 271254Z AUTO VRB05KT 23/21 A2985 RMK AO1 SLP106 T02330206





000
SAUS41 KOKX 271253
MTRNYC
METAR KNYC 271251Z AUTO VRB03KT 9SM BKN050 23/20 A2981 RMK AO2
SLP085 T02330200 $





000
SAUS41 KOKX 271155
MTRMTP
METAR KMTP 271154Z AUTO VRB05KT 23/20 A2986 RMK AO1 SLP109 T02280200
10228 20211 58008





000
SAUS41 KOKX 271152
MTRNYC
METAR KNYC 271151Z AUTO VRB04KT 8SM OVC060 23/21 A2983 RMK AO2
SLP091 60001 70001 T02280206 10228 20217 58010 $





000
SAUS41 KOKX 271055
MTRMTP
METAR KMTP 271054Z AUTO 20008KT 22/20 A2987 RMK AO1 SLP114 T02220200





000
SAUS41 KOKX 271052
MTRNYC
METAR KNYC 271051Z AUTO 00000KT 6SM BR SCT065 SCT075 BKN090 22/21
A2984 RMK AO2 RAB0954E24 SLP094 P0001 T02220206 $





000
SAUS41 KOKX 270955
MTRMTP
METAR KMTP 270954Z AUTO VRB04KT 22/19 A2987 RMK AO1 SLP114 T02170194





000
SAUS41 KOKX 270952
MTRNYC
METAR KNYC 270951Z AUTO 23003KT 10SM FEW014 BKN095 BKN120 23/19
A2985 RMK AO2 SLP099 T02280194 $





000
SAUS41 KOKX 270855
MTRMTP
METAR KMTP 270854Z AUTO VRB04KT 21/19 A2988 RMK AO1 SLP118 T02110194
56011





000
SAUS41 KOKX 270852
MTRNYC
METAR KNYC 270851Z AUTO VRB05KT 9SM SCT013 22/19 A2986 RMK AO2
SLP101 T02220194 56004 $





000
SAUS41 KOKX 270849
MTRNYC
SPECI KNYC 270848Z AUTO 23004KT 9SM SCT013 22/19 A2986 RMK AO2 $





000
SAUS41 KOKX 270841
MTRNYC
SPECI KNYC 270840Z AUTO 00000KT 9SM BKN013 22/19 A2986 RMK AO2
T02220194 $





000
SAUS41 KOKX 270755
MTRMTP
METAR KMTP 270754Z AUTO 19004KT 22/19 A2989 RMK AO1 SLP122 T02170194





000
SAUS41 KOKX 270753
MTRNYC
METAR KNYC 270751Z AUTO 24004KT 9SM CLR 22/19 A2987 RMK AO2 SLP103
T02220194 $





000
SAUS41 KOKX 270655
MTRMTP
METAR KMTP 270654Z AUTO 20005KT 22/19 A2989 RMK AO1 SLP122 T02170194





000
SAUS41 KOKX 270653
MTRNYC
METAR KNYC 270651Z AUTO 00000KT 9SM CLR 22/19 A2987 RMK AO2 SLP105
T02220194 $





000
SAUS41 KOKX 270555
MTRMTP
METAR KMTP 270554Z AUTO VRB05KT 22/19 A2991 RMK AO1 SLP129 T02170194
10222 20211 56012





000
SAUS41 KOKX 270553
MTRNYC
METAR KNYC 270551Z AUTO 00000KT 10SM CLR 23/19 A2990 RMK AO2 SLP114
T02280194 10250 20228 58014 $





000
SAUS41 KOKX 270455
MTRMTP
METAR KMTP 270454Z AUTO 19005KT 21/19 A2993 RMK AO1 SLP133 T02110189
402670206





000
SAUS41 KOKX 270453
MTRNYC
METAR KNYC 270451Z AUTO VRB04KT 10SM CLR 23/19 A2992 RMK AO2 SLP122
T02330194 402720206 $





000
SAUS41 KOKX 270355
MTRMTP
METAR KMTP 270354Z AUTO VRB06KT 22/19 A2993 RMK AO1 SLP135 T02170189





000
SAUS41 KOKX 270352
MTRNYC
METAR KNYC 270351Z AUTO 24007KT 10SM FEW050 23/19 A2994 RMK AO2
SLP127 T02330189 $





000
SAUS41 KOKX 270256
MTRMTP
METAR KMTP 270254Z AUTO 20006KT 22/19 A2995 RMK AO1 SLP141 T02170189
50001





000
SAUS41 KOKX 270252
MTRNYC
METAR KNYC 270251Z AUTO VRB03KT 10SM FEW022 23/18 A2994 RMK AO2
SLP129 T02330183 51005 $





000
SAUS41 KOKX 270155
MTRMTP
METAR KMTP 270154Z AUTO 20005KT 22/19 A2996 RMK AO1 SLP144 T02170189





000
SAUS41 KOKX 270153
MTRNYC
METAR KNYC 270151Z AUTO 21004KT 10SM FEW025 24/18 A2994 RMK AO2
SLP128 T02390183 $





000
SAUS41 KOKX 270141
MTRNYC
SPECI KNYC 270140Z AUTO 20003KT 10SM SCT026 24/18 A2994 RMK AO2
T02390183 $





000
SAUS41 KOKX 270101
MTRNYC
SPECI KNYC 270059Z AUTO VRB03KT 10SM BKN029 24/18 A2993 RMK AO2
T02440178





000
SAUS41 KOKX 270055
MTRMTP
METAR KMTP 270054Z AUTO 20005KT 22/19 A2995 RMK AO1 SLP142 T02170189





000
SAUS41 KOKX 270052
MTRNYC
METAR KNYC 270051Z AUTO 00000KT 10SM SCT029 25/18 A2994 RMK AO2
SLP127 T02500178





000
SAUS41 KOKX 262355
MTRMTP
METAR KMTP 262354Z AUTO VRB05KT 22/19 A2995 RMK AO1 SLP140 T02220189
10256 20222 56009





000
SAUS41 KOKX 262352
MTRNYC
METAR KNYC 262351Z AUTO VRB03KT 10SM CLR 24/17 A2993 RMK AO2 SLP124
T02440172 10272 20239 56009





    US Dept of Commerce
    National Oceanic and Atmospheric Administration
    National Weather Service
    1325 East West Highway
    Silver Spring, MD 20910
    Page Author: NWS Internet Services Team
Disclaimer
Information Quality
Credits
Glossary
Privacy Policy
Freedom of Information Act (FOIA)
About Us
Career Opportunities